Time;durP1;ratioP1;P1;durP2;ratioP2;P2;SDS_P1;SDS_P2;PMS_P1;PMS_P2;Temp;Humidity;BMP_temperature;BMP_pressure;BME280_temperature;BME280_humidity;BME280_pressure;Samples;Min_cycle;Max_cycle;Signal;HPM_P1;HPM_P2
2022/07/16 00:03:50;;;;;;;2.30;2.03;;;;;;;;;;5085736;28;20243;-34
2022/07/16 00:06:17;;;;;;;2.30;2.10;;;;;;;;;;5070220;28;20321;-34
2022/07/16 00:08:45;;;;;;;2.03;1.93;;;;;;;;;;5069884;28;20204;-33
2022/07/16 00:11:12;;;;;;;3.83;1.97;;;;;;;;;;5070509;28;20201;-34
2022/07/16 00:13:40;;;;;;;3.80;2.10;;;;;;;;;;5069870;28;20208;-36
2022/07/16 00:16:07;;;;;;;2.83;2.00;;;;;;;;;;5064805;28;20217;-35
2022/07/16 00:21:21;;;;;;;3.13;2.00;;;;;;;;;;5063245;28;20270;-37
2022/07/16 00:23:48;;;;;;;2.73;2.10;;;;;;;;;;5061042;28;20238;-37
2022/07/16 00:26:15;;;;;;;2.63;2.42;;;;;;;;;;5069537;28;20229;-33
2022/07/16 00:28:42;;;;;;;3.10;2.27;;;;;;;;;;5064700;28;20684;-32
2022/07/16 00:31:09;;;;;;;2.30;2.20;;;;;;;;;;5061273;28;20213;-36
2022/07/16 00:33:36;;;;;;;3.80;2.07;;;;;;;;;;5081757;28;20195;-35
2022/07/16 00:36:04;;;;;;;3.97;2.23;;;;;;;;;;5064764;28;20208;-37
2022/07/16 00:38:32;;;;;;;3.73;2.27;;;;;;;;;;5073962;28;20204;-37
2022/07/16 00:41:00;;;;;;;2.93;2.30;;;;;;;;;;5090449;28;20210;-36
2022/07/16 00:43:27;;;;;;;2.10;2.00;;;;;;;;;;5081578;28;20225;-36
2022/07/16 00:45:54;;;;;;;2.83;2.40;;;;;;;;;;5063218;28;20216;-31
2022/07/16 00:48:21;;;;;;;2.13;2.00;;;;;;;;;;5069441;28;20201;-31
2022/07/16 00:50:48;;;;;;;2.13;2.00;;;;;;;;;;5068086;28;20209;-33
2022/07/16 00:53:16;;;;;;;2.13;2.03;;;;;;;;;;5077477;28;20254;-31
2022/07/16 00:55:44;;;;;;;2.40;2.20;;;;;;;;;;5070035;28;20208;-34
2022/07/16 00:58:11;;;;;;;2.23;2.13;;;;;;;;;;5068596;28;20221;-31
2022/07/16 01:00:41;;;;;;;4.70;2.07;;;;;;;;;;5059620;28;20215;-33
2022/07/16 01:03:08;;;;;;;3.20;2.23;;;;;;;;;;5064466;28;20209;-32
2022/07/16 01:05:35;;;;;;;2.23;2.13;;;;;;;;;;5068282;28;20205;-34
2022/07/16 01:08:04;;;;;;;3.17;1.87;;;;;;;;;;5069792;28;20230;-33
2022/07/16 01:10:31;;;;;;;3.03;2.20;;;;;;;;;;5069507;28;20197;-34
2022/07/16 01:13:00;;;;;;;2.50;1.93;;;;;;;;;;5066876;28;20201;-30
2022/07/16 01:15:27;;;;;;;2.40;2.20;;;;;;;;;;5055494;28;20209;-34
2022/07/16 01:17:54;;;;;;;2.23;2.13;;;;;;;;;;5075103;28;20235;-32
2022/07/16 01:20:22;;;;;;;2.33;2.20;;;;;;;;;;5069557;28;20201;-30
2022/07/16 01:22:49;;;;;;;2.10;1.90;;;;;;;;;;5069275;28;20210;-32
2022/07/16 01:25:17;;;;;;;2.53;2.33;;;;;;;;;;5068985;28;20217;-30
2022/07/16 01:27:45;;;;;;;3.50;2.33;;;;;;;;;;5070899;28;20228;-35
2022/07/16 01:30:12;;;;;;;2.23;2.10;;;;;;;;;;5068830;28;20204;-34
2022/07/16 01:32:39;;;;;;;3.93;2.27;;;;;;;;;;5073657;28;20573;-33
2022/07/16 01:35:07;;;;;;;2.60;2.13;;;;;;;;;;5070355;28;20206;-34
2022/07/16 01:37:34;;;;;;;2.10;2.00;;;;;;;;;;5077471;28;20216;-30
2022/07/16 01:40:01;;;;;;;3.57;2.20;;;;;;;;;;5093458;28;20413;-34
2022/07/16 01:42:30;;;;;;;3.90;2.43;;;;;;;;;;5074355;28;20643;-32
2022/07/16 01:44:57;;;;;;;2.10;2.00;;;;;;;;;;5079349;28;20231;-33
2022/07/16 01:47:24;;;;;;;4.17;2.10;;;;;;;;;;5080078;28;20220;-29
2022/07/16 01:49:51;;;;;;;5.03;2.33;;;;;;;;;;5060391;28;20219;-33
2022/07/16 01:52:21;;;;;;;2.50;2.30;;;;;;;;;;5075896;28;20569;-32
2022/07/16 01:54:49;;;;;;;3.07;2.40;;;;;;;;;;5092788;28;20206;-33
2022/07/16 01:57:16;;;;;;;2.00;1.90;;;;;;;;;;5082664;28;20229;-31
2022/07/16 01:59:45;;;;;;;3.13;2.13;;;;;;;;;;5052583;28;20537;-30
2022/07/16 02:02:12;;;;;;;2.97;2.43;;;;;;;;;;5088136;28;20223;-34
2022/07/16 02:04:40;;;;;;;2.33;2.13;;;;;;;;;;5062535;28;20715;-32
2022/07/16 02:07:07;;;;;;;2.53;2.33;;;;;;;;;;5085878;28;20705;-33
2022/07/16 02:09:34;;;;;;;3.60;2.20;;;;;;;;;;5086515;28;20203;-35
2022/07/16 02:12:02;;;;;;;2.50;2.30;;;;;;;;;;5081697;28;20210;-31
2022/07/16 02:14:29;;;;;;;2.67;2.47;;;;;;;;;;5077033;28;20207;-30
2022/07/16 02:16:57;;;;;;;2.30;2.10;;;;;;;;;;5077424;28;20255;-30
2022/07/16 02:19:25;;;;;;;4.23;2.47;;;;;;;;;;5059806;28;20337;-32
2022/07/16 02:21:52;;;;;;;4.30;2.37;;;;;;;;;;5076959;28;20637;-29
2022/07/16 02:24:19;;;;;;;2.43;2.20;;;;;;;;;;5084364;28;20233;-31
2022/07/16 02:26:46;;;;;;;2.40;2.20;;;;;;;;;;5092683;28;20712;-33
2022/07/16 02:29:13;;;;;;;2.63;2.30;;;;;;;;;;5073154;28;20214;-33
2022/07/16 02:31:41;;;;;;;3.20;2.43;;;;;;;;;;5061531;28;20198;-34
2022/07/16 02:34:09;;;;;;;2.10;1.97;;;;;;;;;;5073120;28;20590;-31
2022/07/16 02:36:37;;;;;;;2.60;2.40;;;;;;;;;;5066068;28;20225;-32
2022/07/16 02:39:04;;;;;;;3.00;2.00;;;;;;;;;;5071215;28;20219;-32
2022/07/16 02:41:31;;;;;;;2.70;2.50;;;;;;;;;;5070161;28;20300;-33
2022/07/16 02:43:58;;;;;;;2.60;2.40;;;;;;;;;;5065243;28;20210;-32
2022/07/16 02:46:25;;;;;;;2.77;2.13;;;;;;;;;;5087091;28;20252;-34
2022/07/16 02:48:53;;;;;;;2.30;2.10;;;;;;;;;;5069540;28;20216;-31
2022/07/16 02:51:21;;;;;;;2.87;2.43;;;;;;;;;;5067184;28;20205;-33
2022/07/16 02:53:49;;;;;;;2.70;2.30;;;;;;;;;;5071537;28;20204;-33
2022/07/16 02:56:16;;;;;;;2.73;2.33;;;;;;;;;;5072290;28;20580;-31
2022/07/16 03:01:11;;;;;;;2.57;2.37;;;;;;;;;;5057674;28;20232;-37
2022/07/16 03:03:39;;;;;;;2.43;2.27;;;;;;;;;;5066200;28;20287;-37
2022/07/16 03:06:06;;;;;;;2.13;1.93;;;;;;;;;;5042693;28;20777;-39
2022/07/16 03:08:34;;;;;;;2.60;2.40;;;;;;;;;;5065860;28;20209;-40
2022/07/16 03:11:02;;;;;;;4.57;2.13;;;;;;;;;;5051806;28;20224;-39
2022/07/16 03:13:29;;;;;;;4.87;2.70;;;;;;;;;;5041449;28;20202;-36
2022/07/16 03:15:56;;;;;;;3.67;2.30;;;;;;;;;;5061503;28;20459;-39
2022/07/16 03:18:23;;;;;;;2.57;2.20;;;;;;;;;;5051354;28;20212;-41
2022/07/16 03:20:50;;;;;;;2.70;2.27;;;;;;;;;;5049815;28;20265;-38
2022/07/16 03:23:17;;;;;;;3.60;2.60;;;;;;;;;;5046468;28;20215;-40
2022/07/16 03:25:46;;;;;;;3.63;2.57;;;;;;;;;;5071275;28;20227;-35
2022/07/16 03:28:13;;;;;;;3.80;2.60;;;;;;;;;;5039189;28;20229;-40
2022/07/16 03:30:40;;;;;;;2.47;2.23;;;;;;;;;;5048332;28;20266;-41
2022/07/16 03:33:07;;;;;;;2.83;1.87;;;;;;;;;;5052457;28;20214;-38
2022/07/16 03:35:34;;;;;;;4.57;2.50;;;;;;;;;;5045321;28;20209;-41
2022/07/16 03:40:48;;;;;;;2.80;2.60;;;;;;;;;;5050855;28;20203;-36
2022/07/16 03:43:15;;;;;;;2.80;2.53;;;;;;;;;;5033078;28;20283;-39
2022/07/16 03:45:42;;;;;;;3.03;2.80;;;;;;;;;;5038029;28;20233;-31
2022/07/16 03:48:10;;;;;;;2.83;2.40;;;;;;;;;;5049629;28;20235;-35
2022/07/16 03:50:37;;;;;;;2.43;2.23;;;;;;;;;;5040312;28;20213;-42
2022/07/16 03:53:04;;;;;;;3.00;2.40;;;;;;;;;;5049465;28;20224;-37
2022/07/16 03:55:31;;;;;;;2.30;2.10;;;;;;;;;;5046149;28;20200;-39
2022/07/16 03:57:59;;;;;;;2.60;2.40;;;;;;;;;;5050130;28;20231;-38
2022/07/16 04:00:27;;;;;;;2.90;2.30;;;;;;;;;;5048994;28;20362;-41
2022/07/16 04:02:54;;;;;;;2.87;2.63;;;;;;;;;;5045318;28;20295;-39
2022/07/16 04:05:21;;;;;;;4.70;2.70;;;;;;;;;;5040116;28;20306;-38
2022/07/16 04:07:48;;;;;;;2.80;2.60;;;;;;;;;;5055633;28;20235;-39
2022/07/16 04:10:15;;;;;;;3.23;2.30;;;;;;;;;;5060086;28;20209;-39
2022/07/16 04:12:43;;;;;;;2.33;2.13;;;;;;;;;;5051701;28;20292;-39
2022/07/16 04:15:11;;;;;;;2.43;2.27;;;;;;;;;;5044754;28;20207;-39
2022/07/16 04:17:38;;;;;;;4.00;2.60;;;;;;;;;;5049844;28;20231;-40
2022/07/16 04:20:06;;;;;;;2.50;2.30;;;;;;;;;;5046158;28;20219;-39
2022/07/16 04:22:34;;;;;;;3.67;2.20;;;;;;;;;;5055677;28;20222;-40
2022/07/16 04:25:01;;;;;;;2.60;2.40;;;;;;;;;;5035378;28;20224;-36
2022/07/16 04:27:28;;;;;;;3.43;2.60;;;;;;;;;;5047659;28;20223;-40
2022/07/16 04:29:55;;;;;;;6.47;2.43;;;;;;;;;;5044431;28;20208;-40
2022/07/16 04:32:23;;;;;;;2.73;2.53;;;;;;;;;;5057182;28;20207;-39
2022/07/16 04:34:50;;;;;;;3.43;2.60;;;;;;;;;;5056207;28;20208;-33
2022/07/16 04:37:18;;;;;;;3.43;2.80;;;;;;;;;;5052274;28;20228;-38
2022/07/16 04:39:45;;;;;;;2.57;2.30;;;;;;;;;;5067412;28;20203;-38
2022/07/16 04:42:12;;;;;;;2.73;2.53;;;;;;;;;;5066205;28;20211;-40
2022/07/16 04:44:39;;;;;;;3.23;2.70;;;;;;;;;;5045887;28;20225;-43
2022/07/16 04:47:06;;;;;;;2.80;2.60;;;;;;;;;;5061695;28;20235;-40
2022/07/16 04:49:35;;;;;;;2.90;2.67;;;;;;;;;;5062875;28;20229;-40
2022/07/16 04:52:02;;;;;;;4.87;3.17;;;;;;;;;;5051265;28;20220;-35
2022/07/16 04:54:29;;;;;;;2.70;2.50;;;;;;;;;;5061295;28;20204;-38
2022/07/16 04:56:57;;;;;;;4.20;3.27;;;;;;;;;;5044330;28;20228;-31
2022/07/16 04:59:24;;;;;;;2.83;2.63;;;;;;;;;;5048556;28;20207;-43
2022/07/16 05:01:51;;;;;;;2.97;2.50;;;;;;;;;;5044686;28;20205;-34
2022/07/16 05:04:18;;;;;;;3.63;2.97;;;;;;;;;;5042351;28;20230;-33
2022/07/16 05:06:46;;;;;;;3.17;2.43;;;;;;;;;;5059242;28;20231;-38
2022/07/16 05:09:14;;;;;;;4.00;3.10;;;;;;;;;;5063997;28;20207;-36
2022/07/16 05:11:41;;;;;;;2.97;2.73;;;;;;;;;;5055581;28;20207;-36
2022/07/16 05:14:08;;;;;;;3.50;2.90;;;;;;;;;;5050182;28;20211;-34
2022/07/16 05:16:35;;;;;;;3.20;2.60;;;;;;;;;;5066231;28;20231;-36
2022/07/16 05:19:02;;;;;;;2.97;2.77;;;;;;;;;;5071314;28;20223;-38
2022/07/16 05:21:29;;;;;;;3.33;2.90;;;;;;;;;;5052533;28;20221;-37
2022/07/16 05:23:58;;;;;;;6.00;3.17;;;;;;;;;;5061267;28;20204;-34
2022/07/16 05:26:25;;;;;;;3.00;2.70;;;;;;;;;;5075489;28;20236;-41
2022/07/16 05:28:52;;;;;;;2.67;2.47;;;;;;;;;;5062403;28;20211;-36
2022/07/16 05:31:19;;;;;;;3.83;3.00;;;;;;;;;;5058642;28;20208;-35
2022/07/16 05:33:46;;;;;;;3.40;3.10;;;;;;;;;;5064054;28;20209;-38
2022/07/16 05:36:13;;;;;;;4.37;3.13;;;;;;;;;;5050216;28;20206;-36
2022/07/16 05:38:40;;;;;;;4.65;2.83;;;;;;;;;;5070524;28;20284;-34
2022/07/16 05:41:09;;;;;;;4.07;2.97;;;;;;;;;;5076082;28;20209;-35
2022/07/16 05:43:36;;;;;;;2.73;2.50;;;;;;;;;;5051195;28;20271;-35
2022/07/16 05:46:03;;;;;;;4.10;2.70;;;;;;;;;;5071038;28;20232;-40
2022/07/16 05:48:32;;;;;;;4.30;3.10;;;;;;;;;;5074781;28;20374;-39
2022/07/16 05:50:59;;;;;;;2.87;2.60;;;;;;;;;;5045180;28;20202;-37
2022/07/16 05:53:26;;;;;;;4.63;2.73;;;;;;;;;;5070094;28;20205;-39
2022/07/16 05:55:53;;;;;;;4.90;2.87;;;;;;;;;;5055513;28;20212;-39
2022/07/16 05:58:22;;;;;;;2.97;2.70;;;;;;;;;;5053130;28;20213;-36
2022/07/16 06:00:49;;;;;;;3.15;2.78;;;;;;;;;;5052325;28;20223;-39
2022/07/16 06:03:16;;;;;;;3.87;3.13;;;;;;;;;;5066595;28;20197;-42
2022/07/16 06:05:43;;;;;;;3.13;2.80;;;;;;;;;;5055369;28;20233;-41
2022/07/16 06:08:11;;;;;;;3.20;2.90;;;;;;;;;;5054640;28;20226;-36
2022/07/16 06:10:38;;;;;;;3.47;3.00;;;;;;;;;;5055233;28;20211;-36
2022/07/16 06:13:05;;;;;;;4.68;3.60;;;;;;;;;;5054011;28;20209;-38
2022/07/16 06:15:34;;;;;;;3.85;3.45;;;;;;;;;;5040045;28;20202;-35
2022/07/16 06:18:01;;;;;;;5.22;2.92;;;;;;;;;;5070041;28;20249;-33
2022/07/16 06:20:28;;;;;;;3.13;2.92;;;;;;;;;;5059504;28;20203;-40
2022/07/16 06:22:56;;;;;;;4.07;2.72;;;;;;;;;;5057186;28;20212;-41
2022/07/16 06:25:23;;;;;;;3.20;2.90;;;;;;;;;;5054515;28;20223;-40
2022/07/16 06:27:50;;;;;;;3.22;2.95;;;;;;;;;;5043157;28;20247;-36
2022/07/16 06:30:18;;;;;;;3.33;3.03;;;;;;;;;;5050222;28;20377;-38
2022/07/16 06:32:46;;;;;;;3.70;3.40;;;;;;;;;;5053823;28;20206;-41
2022/07/16 06:35:14;;;;;;;4.90;3.40;;;;;;;;;;5048288;28;20284;-36
2022/07/16 06:37:41;;;;;;;3.38;3.10;;;;;;;;;;5061990;28;20228;-41
2022/07/16 06:40:09;;;;;;;7.47;3.25;;;;;;;;;;5072044;28;20202;-35
2022/07/16 06:42:36;;;;;;;3.60;3.15;;;;;;;;;;5062780;28;20215;-37
2022/07/16 06:45:03;;;;;;;3.55;3.25;;;;;;;;;;5034281;28;20214;-37
2022/07/16 06:47:30;;;;;;;3.40;3.08;;;;;;;;;;5053566;28;20485;-36
2022/07/16 06:49:59;;;;;;;6.28;3.08;;;;;;;;;;5059535;28;20209;-38
2022/07/16 06:52:26;;;;;;;3.10;2.67;;;;;;;;;;5065713;28;20231;-39
2022/07/16 06:54:53;;;;;;;3.38;3.08;;;;;;;;;;5056917;28;20206;-38
2022/07/16 06:57:21;;;;;;;3.85;3.20;;;;;;;;;;5052164;28;20226;-42
2022/07/16 06:59:48;;;;;;;4.13;3.35;;;;;;;;;;5053736;28;20227;-39
2022/07/16 07:02:15;;;;;;;3.20;2.85;;;;;;;;;;5062673;28;20200;-37
2022/07/16 07:04:43;;;;;;;6.10;3.33;;;;;;;;;;5058199;28;20235;-38
2022/07/16 07:07:11;;;;;;;5.78;3.45;;;;;;;;;;5062026;28;20235;-40
2022/07/16 07:09:39;;;;;;;4.68;3.38;;;;;;;;;;5071514;28;20235;-40
2022/07/16 07:12:06;;;;;;;3.53;3.00;;;;;;;;;;5053395;28;20201;-40
2022/07/16 07:14:33;;;;;;;3.33;2.63;;;;;;;;;;5050231;28;20292;-36
2022/07/16 07:17:00;;;;;;;4.63;3.10;;;;;;;;;;5053590;28;20233;-42
2022/07/16 07:19:27;;;;;;;4.47;2.60;;;;;;;;;;5050085;28;20213;-37
2022/07/16 07:21:55;;;;;;;4.93;3.00;;;;;;;;;;5058766;28;20210;-42
2022/07/16 07:24:23;;;;;;;6.47;2.92;;;;;;;;;;5073074;28;20197;-38
2022/07/16 07:26:50;;;;;;;3.50;3.17;;;;;;;;;;5051241;28;20239;-40
2022/07/16 07:29:17;;;;;;;3.10;2.80;;;;;;;;;;5042728;28;20269;-37
2022/07/16 07:31:45;;;;;;;3.50;2.72;;;;;;;;;;5066052;28;20201;-38
2022/07/16 07:34:12;;;;;;;6.53;2.78;;;;;;;;;;5068675;28;20205;-34
2022/07/16 07:36:39;;;;;;;4.32;3.22;;;;;;;;;;5053304;28;20223;-38
2022/07/16 07:39:07;;;;;;;5.05;2.97;;;;;;;;;;5062411;28;20205;-37
2022/07/16 07:41:35;;;;;;;3.38;2.90;;;;;;;;;;5051509;28;20205;-39
2022/07/16 07:44:02;;;;;;;3.50;2.55;;;;;;;;;;5056001;28;20202;-38
2022/07/16 07:46:29;;;;;;;3.60;2.53;;;;;;;;;;5072854;28;20312;-39
2022/07/16 07:48:57;;;;;;;2.85;2.65;;;;;;;;;;5069261;28;20208;-34
2022/07/16 07:51:24;;;;;;;4.32;2.58;;;;;;;;;;5056660;28;20201;-36
2022/07/16 07:53:51;;;;;;;4.90;2.53;;;;;;;;;;5050340;28;20233;-37
2022/07/16 07:56:18;;;;;;;4.05;2.88;;;;;;;;;;5045401;28;20221;-37
2022/07/16 07:58:46;;;;;;;4.63;2.60;;;;;;;;;;5042888;28;20216;-42
2022/07/16 08:01:14;;;;;;;2.80;2.58;;;;;;;;;;5052438;28;20209;-40
2022/07/16 08:03:41;;;;;;;3.13;2.55;;;;;;;;;;5052921;28;20201;-40
2022/07/16 08:06:08;;;;;;;2.30;2.10;;;;;;;;;;5055500;28;20236;-42
2022/07/16 08:08:35;;;;;;;3.08;2.35;;;;;;;;;;5057502;28;20209;-41
2022/07/16 08:11:02;;;;;;;3.33;2.42;;;;;;;;;;5048758;28;20202;-39
2022/07/16 08:13:29;;;;;;;4.65;2.67;;;;;;;;;;5052531;28;20217;-37
2022/07/16 08:15:57;;;;;;;2.45;2.22;;;;;;;;;;5041501;28;20198;-40
2022/07/16 08:18:24;;;;;;;3.45;2.45;;;;;;;;;;5051026;28;20198;-35
2022/07/16 08:20:52;;;;;;;4.03;2.72;;;;;;;;;;5052588;28;20208;-41
2022/07/16 08:25:44;;;;;;;5.07;2.20;;;;;;;;;;5058959;28;20208;-32
2022/07/16 08:26:05;;;;;;;2.78;2.53;;;;;;;;;;5046564;28;20222;-33
2022/07/16 08:28:32;;;;;;;3.08;2.25;;;;;;;;;;5040450;28;20198;-44
2022/07/16 08:31:02;;;;;;;2.42;2.20;;;;;;;;;;5050796;28;20217;-35
2022/07/16 08:33:29;;;;;;;2.28;1.80;;;;;;;;;;5053317;28;20210;-42
2022/07/16 08:35:58;;;;;;;2.40;2.05;;;;;;;;;;5053012;28;20205;-32
2022/07/16 08:38:25;;;;;;;4.78;2.42;;;;;;;;;;5072911;28;20211;-38
2022/07/16 08:40:52;;;;;;;2.05;1.85;;;;;;;;;;5064343;28;20201;-36
2022/07/16 08:43:19;;;;;;;5.25;1.75;;;;;;;;;;5045410;28;20198;-36
2022/07/16 08:45:46;;;;;;;3.00;1.58;;;;;;;;;;5049824;28;20216;-37
2022/07/16 08:48:15;;;;;;;2.80;1.70;;;;;;;;;;5071125;28;20220;-36
2022/07/16 08:50:43;;;;;;;2.58;1.67;;;;;;;;;;5045172;28;20212;-39
2022/07/16 08:53:10;;;;;;;1.83;1.30;;;;;;;;;;5051066;28;20225;-35
2022/07/16 08:55:39;;;;;;;3.38;1.50;;;;;;;;;;5050671;28;20201;-38
2022/07/16 08:58:07;;;;;;;2.75;1.67;;;;;;;;;;5048482;28;20309;-43
2022/07/16 09:03:03;;;;;;;1.88;1.45;;;;;;;;;;5059770;28;20247;-40
2022/07/16 09:05:31;;;;;;;4.00;1.40;;;;;;;;;;5052755;28;20208;-43
2022/07/16 09:07:58;;;;;;;2.53;1.50;;;;;;;;;;5062995;28;20240;-42
2022/07/16 09:10:34;;;;;;;2.00;1.40;;;;;;;;;;5061073;28;20223;-42
2022/07/16 09:13:02;;;;;;;1.67;1.15;;;;;;;;;;5046632;28;20210;-42
2022/07/16 09:15:30;;;;;;;2.13;1.60;;;;;;;;;;5051629;28;20213;-43
2022/07/16 09:18:11;;;;;;;1.90;1.38;;;;;;;;;;5069539;28;20270;-42
2022/07/16 09:20:40;;;;;;;1.40;1.30;;;;;;;;;;5054396;28;20208;-43
2022/07/16 09:23:18;;;;;;;1.05;1.05;;;;;;;;;;5067012;28;20237;-42
2022/07/16 09:25:48;;;;;;;2.13;1.50;;;;;;;;;;5052070;28;20201;-42
2022/07/16 09:28:15;;;;;;;3.75;1.63;;;;;;;;;;5047172;28;20263;-40
2022/07/16 09:30:42;;;;;;;2.85;1.52;;;;;;;;;;5039931;28;20208;-43
2022/07/16 09:33:12;;;;;;;2.90;1.20;;;;;;;;;;5069404;28;20210;-42
2022/07/16 09:35:41;;;;;;;2.78;1.48;;;;;;;;;;5047927;28;20202;-39
2022/07/16 09:38:09;;;;;;;3.97;1.20;;;;;;;;;;5056051;28;20224;-37
2022/07/16 09:40:37;;;;;;;2.25;1.05;;;;;;;;;;5071455;28;20259;-40
2022/07/16 09:43:04;;;;;;;2.50;1.00;;;;;;;;;;5057835;28;20205;-41
2022/07/16 09:45:32;;;;;;;2.97;1.10;;;;;;;;;;5053125;28;20227;-39
2022/07/16 09:47:59;;;;;;;2.28;1.17;;;;;;;;;;5069031;28;20224;-43
2022/07/16 09:50:36;;;;;;;1.38;1.25;;;;;;;;;;5055347;28;20203;-41
2022/07/16 09:53:15;;;;;;;1.25;0.95;;;;;;;;;;5061636;28;20207;-41
2022/07/16 09:55:54;;;;;;;2.00;1.05;;;;;;;;;;5054709;28;20218;-42
2022/07/16 09:58:21;;;;;;;1.77;1.33;;;;;;;;;;5050494;28;20211;-43
2022/07/16 10:00:49;;;;;;;2.13;1.20;;;;;;;;;;5053454;28;20207;-41
2022/07/16 10:03:16;;;;;;;1.30;1.20;;;;;;;;;;5061787;28;20188;-42
2022/07/16 10:05:43;;;;;;;1.20;0.98;;;;;;;;;;5049247;28;20216;-42
2022/07/16 10:08:11;;;;;;;1.20;1.05;;;;;;;;;;5056614;28;20238;-42
2022/07/16 10:10:39;;;;;;;2.78;1.42;;;;;;;;;;5054082;28;20210;-40
2022/07/16 10:13:08;;;;;;;3.60;1.50;;;;;;;;;;5034079;28;20213;-41
2022/07/16 10:15:35;;;;;;;1.63;1.20;;;;;;;;;;5041780;28;20211;-40
2022/07/16 10:18:02;;;;;;;3.25;1.70;;;;;;;;;;5062418;28;20231;-42
2022/07/16 10:20:35;;;;;;;1.77;1.20;;;;;;;;;;5053031;28;20226;-43
2022/07/16 10:23:06;;;;;;;3.47;1.50;;;;;;;;;;5065268;28;20221;-36
2022/07/16 10:25:36;;;;;;;4.38;1.40;;;;;;;;;;5060749;28;20194;-43
2022/07/16 10:28:04;;;;;;;2.42;1.30;;;;;;;;;;5050381;28;20241;-41
2022/07/16 10:30:32;;;;;;;1.63;1.30;;;;;;;;;;5067207;28;20202;-43
2022/07/16 10:33:13;;;;;;;2.53;1.40;;;;;;;;;;5053374;28;20236;-37
2022/07/16 10:35:42;;;;;;;1.80;1.27;;;;;;;;;;5048190;28;20662;-41
2022/07/16 10:38:10;;;;;;;1.83;1.10;;;;;;;;;;5062127;28;20249;-42
2022/07/16 10:40:39;;;;;;;1.55;1.38;;;;;;;;;;5053922;28;20224;-39
2022/07/16 10:43:15;;;;;;;1.58;1.13;;;;;;;;;;5041909;28;20215;-42
2022/07/16 10:45:54;;;;;;;3.83;1.30;;;;;;;;;;5049792;28;20216;-39
2022/07/16 10:48:21;;;;;;;1.25;1.15;;;;;;;;;;5046077;28;20229;-36
2022/07/16 10:51:06;;;;;;;1.35;1.20;;;;;;;;;;5051923;28;20216;-42
2022/07/16 10:54:06;;;;;;;2.90;1.45;;;;;;;;;;5062045;28;20200;-41
2022/07/16 10:56:34;;;;;;;1.33;1.23;;;;;;;;;;5065158;28;20232;-38
2022/07/16 10:59:03;;;;;;;2.33;1.50;;;;;;;;;;5053000;28;20204;-38
2022/07/16 11:01:30;;;;;;;2.95;1.80;;;;;;;;;;5062023;28;20219;-43
2022/07/16 11:03:58;;;;;;;3.05;1.83;;;;;;;;;;5052452;28;20211;-40
2022/07/16 11:06:25;;;;;;;1.50;1.23;;;;;;;;;;5051891;28;20222;-42
2022/07/16 11:08:53;;;;;;;3.38;1.70;;;;;;;;;;5066570;28;20658;-41
2022/07/16 11:11:21;;;;;;;2.33;1.30;;;;;;;;;;5052700;28;20291;-39
2022/07/16 11:13:48;;;;;;;2.22;1.20;;;;;;;;;;5038546;28;20204;-40
2022/07/16 11:16:16;;;;;;;2.70;1.40;;;;;;;;;;5047540;28;20627;-39
2022/07/16 11:18:43;;;;;;;1.55;1.15;;;;;;;;;;5050475;28;20199;-41
2022/07/16 11:21:11;;;;;;;2.15;1.30;;;;;;;;;;5053717;28;20250;-42
2022/07/16 11:23:47;;;;;;;1.27;1.00;;;;;;;;;;5067818;28;20202;-40
2022/07/16 11:26:14;;;;;;;3.58;1.23;;;;;;;;;;5053596;28;20207;-40
2022/07/16 11:28:51;;;;;;;1.33;1.20;;;;;;;;;;5048617;28;20223;-39
2022/07/16 11:31:24;;;;;;;1.73;1.58;;;;;;;;;;5057227;28;20199;-42
2022/07/16 11:33:52;;;;;;;1.73;1.10;;;;;;;;;;5053088;28;20207;-37
2022/07/16 11:36:19;;;;;;;1.10;1.00;;;;;;;;;;5046182;28;20224;-42
2022/07/16 11:38:46;;;;;;;2.53;1.35;;;;;;;;;;5053598;28;20209;-40
2022/07/16 11:41:14;;;;;;;1.20;1.10;;;;;;;;;;5049540;28;20224;-41
2022/07/16 11:43:41;;;;;;;1.48;1.10;;;;;;;;;;5047464;28;20212;-41
2022/07/16 11:46:20;;;;;;;1.08;0.98;;;;;;;;;;5051946;28;20211;-41
2022/07/16 11:48:49;;;;;;;1.73;1.20;;;;;;;;;;5051892;28;20215;-40
2022/07/16 11:51:16;;;;;;;1.50;1.40;;;;;;;;;;5045847;28;20200;-41
2022/07/16 11:53:47;;;;;;;1.25;1.15;;;;;;;;;;5065507;28;20209;-35
2022/07/16 11:56:15;;;;;;;1.67;0.90;;;;;;;;;;5053783;28;20211;-38
2022/07/16 11:58:42;;;;;;;2.15;0.98;;;;;;;;;;5055124;28;20199;-39
2022/07/16 12:01:09;;;;;;;4.63;0.90;;;;;;;;;;5047932;28;20556;-43
2022/07/16 12:03:37;;;;;;;2.17;0.85;;;;;;;;;;5072527;28;20312;-35
2022/07/16 12:06:08;;;;;;;2.63;0.98;;;;;;;;;;5053926;28;20244;-43
2022/07/16 12:08:36;;;;;;;2.40;0.98;;;;;;;;;;5063869;28;20216;-42
2022/07/16 12:11:05;;;;;;;2.13;1.17;;;;;;;;;;5054689;28;20205;-37
2022/07/16 12:13:33;;;;;;;1.23;0.90;;;;;;;;;;5044069;28;20213;-41
2022/07/16 12:16:01;;;;;;;0.90;0.73;;;;;;;;;;5053868;28;20232;-40
2022/07/16 12:18:28;;;;;;;0.90;0.77;;;;;;;;;;5043545;28;20295;-39
2022/07/16 12:20:55;;;;;;;2.33;1.00;;;;;;;;;;5049766;28;20215;-40
2022/07/16 12:23:34;;;;;;;2.55;0.98;;;;;;;;;;5062946;28;20236;-38
2022/07/16 12:26:01;;;;;;;1.67;0.93;;;;;;;;;;5053197;28;20211;-42
2022/07/16 12:28:29;;;;;;;1.55;1.35;;;;;;;;;;5047600;28;20221;-42
2022/07/16 12:30:56;;;;;;;1.40;0.88;;;;;;;;;;5054703;28;20206;-40
2022/07/16 12:33:26;;;;;;;1.48;0.80;;;;;;;;;;5065105;28;20204;-42
2022/07/16 12:35:54;;;;;;;1.13;1.02;;;;;;;;;;5044967;28;20260;-38
2022/07/16 12:38:52;;;;;;;2.92;0.88;;;;;;;;;;5067455;28;20200;-36
2022/07/16 12:41:21;;;;;;;0.90;0.90;;;;;;;;;;4975026;28;20226;-42
2022/07/16 12:43:49;;;;;;;1.75;1.25;;;;;;;;;;5025860;28;20208;-38
2022/07/16 12:46:17;;;;;;;0.90;0.90;;;;;;;;;;5051998;28;20235;-41
2022/07/16 12:48:46;;;;;;;0.95;0.80;;;;;;;;;;5064510;28;20228;-40
2022/07/16 12:51:14;;;;;;;2.33;0.90;;;;;;;;;;5045950;28;20201;-44
2022/07/16 12:53:41;;;;;;;2.08;1.10;;;;;;;;;;5063739;28;20204;-38
2022/07/16 12:58:55;;;;;;;2.38;1.00;;;;;;;;;;5043921;28;20208;-40
2022/07/16 13:01:24;;;;;;;3.15;2.85;;;;;;;;;;5059894;28;20851;-37
2022/07/16 13:03:51;;;;;;;1.45;1.00;;;;;;;;;;5050153;28;20209;-43
2022/07/16 13:06:19;;;;;;;1.33;1.02;;;;;;;;;;5054211;28;20550;-42
2022/07/16 13:08:46;;;;;;;1.40;0.90;;;;;;;;;;5055110;28;20231;-39
2022/07/16 13:11:14;;;;;;;1.75;0.90;;;;;;;;;;5043687;28;20205;-42
2022/07/16 13:13:42;;;;;;;1.20;0.93;;;;;;;;;;5049754;28;20226;-39
2022/07/16 13:16:11;;;;;;;1.60;0.93;;;;;;;;;;5053595;28;20214;-39
2022/07/16 13:18:38;;;;;;;3.00;1.05;;;;;;;;;;5052456;28;20529;-41
2022/07/16 13:21:06;;;;;;;1.55;0.75;;;;;;;;;;5044862;28;20211;-41
2022/07/16 13:23:33;;;;;;;1.05;1.00;;;;;;;;;;5067348;28;20268;-41
2022/07/16 13:26:01;;;;;;;0.90;0.90;;;;;;;;;;5054820;28;20235;-37
2022/07/16 13:28:29;;;;;;;1.45;0.80;;;;;;;;;;5054653;28;20900;-41
2022/07/16 13:30:56;;;;;;;1.13;1.02;;;;;;;;;;5072861;28;20281;-40
2022/07/16 13:33:24;;;;;;;1.50;1.00;;;;;;;;;;5053142;28;20203;-40
2022/07/16 13:35:51;;;;;;;1.00;0.90;;;;;;;;;;5047485;28;20666;-38
2022/07/16 13:38:19;;;;;;;0.70;0.70;;;;;;;;;;5058514;28;20230;-38
2022/07/16 13:40:46;;;;;;;0.80;0.80;;;;;;;;;;5058724;28;20197;-40
2022/07/16 13:43:13;;;;;;;2.50;1.20;;;;;;;;;;5045772;28;20208;-40
2022/07/16 13:45:40;;;;;;;3.53;1.00;;;;;;;;;;5050150;28;20204;-40
2022/07/16 13:48:08;;;;;;;2.40;0.85;;;;;;;;;;5074444;28;20262;-42
2022/07/16 13:50:36;;;;;;;1.55;0.90;;;;;;;;;;5059004;28;20214;-40
2022/07/16 13:53:04;;;;;;;1.40;1.15;;;;;;;;;;5062765;28;20210;-37
2022/07/16 13:55:31;;;;;;;0.70;0.70;;;;;;;;;;5075370;28;20212;-44
2022/07/16 13:58:18;;;;;;;0.75;0.75;;;;;;;;;;5050872;28;20235;-42
2022/07/16 14:00:46;;;;;;;1.35;0.98;;;;;;;;;;5046341;28;20200;-43
2022/07/16 14:03:14;;;;;;;1.05;0.90;;;;;;;;;;5064017;28;20203;-43
2022/07/16 14:05:42;;;;;;;0.90;0.90;;;;;;;;;;5050103;28;20208;-42
2022/07/16 14:08:10;;;;;;;1.27;0.90;;;;;;;;;;5063358;28;20614;-44
2022/07/16 14:10:37;;;;;;;1.50;1.05;;;;;;;;;;5055219;28;20224;-41
2022/07/16 14:13:05;;;;;;;3.15;0.85;;;;;;;;;;5045172;28;20209;-45
2022/07/16 14:15:33;;;;;;;1.33;0.80;;;;;;;;;;5047398;28;20208;-44
2022/07/16 14:18:00;;;;;;;1.20;0.98;;;;;;;;;;5060023;28;20219;-41
2022/07/16 14:20:27;;;;;;;1.05;0.90;;;;;;;;;;5047478;28;20235;-43
2022/07/16 14:22:56;;;;;;;4.03;1.05;;;;;;;;;;5054626;28;20208;-43
2022/07/16 14:25:24;;;;;;;1.65;0.93;;;;;;;;;;5068839;28;20203;-45
2022/07/16 14:27:52;;;;;;;1.50;1.10;;;;;;;;;;5076031;28;20299;-38
2022/07/16 14:30:19;;;;;;;1.85;1.30;;;;;;;;;;5058758;28;20702;-39
2022/07/16 14:32:47;;;;;;;1.00;0.90;;;;;;;;;;5060389;28;20219;-43
2022/07/16 14:35:16;;;;;;;1.17;1.08;;;;;;;;;;5050947;28;20224;-43
2022/07/16 14:37:43;;;;;;;1.52;1.20;;;;;;;;;;5053895;28;20219;-39
2022/07/16 14:40:14;;;;;;;1.00;1.00;;;;;;;;;;5057228;28;20204;-42
2022/07/16 14:42:42;;;;;;;1.58;1.00;;;;;;;;;;5054258;28;20216;-41
2022/07/16 14:45:11;;;;;;;2.42;1.20;;;;;;;;;;5048090;28;20219;-41
2022/07/16 14:47:39;;;;;;;2.47;1.23;;;;;;;;;;5062682;28;20258;-41
2022/07/16 14:50:07;;;;;;;1.73;1.48;;;;;;;;;;5054466;28;20205;-39
2022/07/16 14:52:34;;;;;;;4.07;1.52;;;;;;;;;;5053495;28;20213;-40
2022/07/16 14:55:01;;;;;;;1.33;1.10;;;;;;;;;;5062549;28;20208;-39
2022/07/16 14:57:30;;;;;;;4.65;1.38;;;;;;;;;;5056209;28;20333;-43
2022/07/16 15:02:25;;;;;;;1.65;0.88;;;;;;;;;;5062180;28;20219;-39
2022/07/16 15:04:52;;;;;;;1.10;1.00;;;;;;;;;;5035441;28;20205;-39
2022/07/16 15:07:20;;;;;;;1.13;1.02;;;;;;;;;;5033312;28;20681;-43